Time;durP1;ratioP1;P1;durP2;ratioP2;P2;SDS_P1;SDS_P2;PMS_P1;PMS_P2;Temp;Humidity;BMP_temperature;BMP_pressure;BME280_temperature;BME280_humidity;BME280_pressure;Samples;Min_cycle;Max_cycle;Signal;HPM_P1;HPM_P2
2022/11/28 00:00:34;;;;;;;14.45;9.57;;;;;;;;;;5085078;28;20025;-58
2022/11/28 00:03:00;;;;;;;18.20;9.88;;;;;;;;;;5079523;28;20058;-56
2022/11/28 00:05:25;;;;;;;16.58;9.98;;;;;;;;;;5084117;28;20024;-58
2022/11/28 00:07:50;;;;;;;15.38;9.65;;;;;;;;;;5079012;28;20036;-58
2022/11/28 00:10:15;;;;;;;14.35;9.43;;;;;;;;;;5070297;28;20032;-58
2022/11/28 00:12:41;;;;;;;15.43;9.50;;;;;;;;;;5076379;28;20059;-58
2022/11/28 00:15:06;;;;;;;14.00;9.48;;;;;;;;;;5072135;28;20036;-58
2022/11/28 00:17:31;;;;;;;14.07;9.43;;;;;;;;;;5077663;28;20035;-58
2022/11/28 00:19:57;;;;;;;12.95;8.65;;;;;;;;;;5080902;28;20473;-59
2022/11/28 00:22:23;;;;;;;16.27;9.65;;;;;;;;;;5079932;28;20435;-56
2022/11/28 00:24:48;;;;;;;17.70;9.95;;;;;;;;;;5077602;28;20047;-57
2022/11/28 00:27:13;;;;;;;16.08;9.80;;;;;;;;;;5078149;28;20020;-58
2022/11/28 00:29:38;;;;;;;12.98;8.25;;;;;;;;;;5088698;28;20019;-58
2022/11/28 00:32:04;;;;;;;14.80;9.38;;;;;;;;;;5090768;28;20063;-58
2022/11/28 00:34:29;;;;;;;14.77;9.52;;;;;;;;;;5074495;28;20016;-59
2022/11/28 00:36:54;;;;;;;14.57;8.80;;;;;;;;;;5080075;28;20145;-56
2022/11/28 00:39:20;;;;;;;15.10;9.48;;;;;;;;;;5072269;28;20028;-58
2022/11/28 00:41:45;;;;;;;15.40;9.52;;;;;;;;;;5084823;28;20016;-58
2022/11/28 00:44:10;;;;;;;13.98;9.15;;;;;;;;;;5077323;28;20123;-58
2022/11/28 00:46:35;;;;;;;16.23;8.55;;;;;;;;;;5108588;27;20494;-56
2022/11/28 00:49:01;;;;;;;15.57;9.65;;;;;;;;;;5080778;28;20027;-58
2022/11/28 00:51:27;;;;;;;14.15;8.70;;;;;;;;;;5087579;28;20075;-56
2022/11/28 00:53:53;;;;;;;15.63;8.75;;;;;;;;;;5072039;28;20020;-59
2022/11/28 00:56:19;;;;;;;12.57;8.88;;;;;;;;;;5084510;28;20647;-58
2022/11/28 00:58:44;;;;;;;12.57;8.65;;;;;;;;;;5077231;28;20053;-58
2022/11/28 01:01:10;;;;;;;17.98;8.55;;;;;;;;;;5079614;28;20548;-58
2022/11/28 01:03:35;;;;;;;12.60;8.07;;;;;;;;;;5084055;28;20035;-56
2022/11/28 01:06:00;;;;;;;14.10;8.18;;;;;;;;;;5084844;28;20482;-59
2022/11/28 01:08:26;;;;;;;13.30;7.35;;;;;;;;;;5080774;28;20040;-56
2022/11/28 01:10:51;;;;;;;13.55;7.60;;;;;;;;;;5075092;28;20121;-56
2022/11/28 01:13:16;;;;;;;13.25;8.60;;;;;;;;;;5070134;28;20478;-57
2022/11/28 01:15:41;;;;;;;14.35;8.10;;;;;;;;;;5084015;28;20470;-59
2022/11/28 01:18:07;;;;;;;11.45;6.47;;;;;;;;;;5084118;28;20526;-59
2022/11/28 01:20:32;;;;;;;10.13;6.57;;;;;;;;;;5086425;28;20032;-59
2022/11/28 01:22:57;;;;;;;13.15;7.20;;;;;;;;;;5074987;28;20103;-56
2022/11/28 01:25:23;;;;;;;16.85;8.85;;;;;;;;;;5070752;28;20424;-56
2022/11/28 01:27:48;;;;;;;23.20;11.20;;;;;;;;;;5067006;28;20455;-59
2022/11/28 01:30:13;;;;;;;18.05;8.88;;;;;;;;;;5075506;28;20490;-57
2022/11/28 01:32:39;;;;;;;19.30;8.75;;;;;;;;;;5088949;28;20023;-58
2022/11/28 01:35:04;;;;;;;16.63;8.05;;;;;;;;;;5093062;28;20035;-58
2022/11/28 01:37:29;;;;;;;15.98;9.02;;;;;;;;;;5079329;28;20027;-58
2022/11/28 01:39:54;;;;;;;15.23;8.35;;;;;;;;;;5081343;28;20027;-59
2022/11/28 01:42:20;;;;;;;13.93;7.60;;;;;;;;;;5081722;28;20025;-57
2022/11/28 01:44:48;;;;;;;14.40;8.27;;;;;;;;;;5080976;28;20024;-58
2022/11/28 01:47:31;;;;;;;14.60;8.50;;;;;;;;;;5081543;28;20063;-58
2022/11/28 01:49:56;;;;;;;13.60;8.45;;;;;;;;;;5082804;28;20046;-58
2022/11/28 01:52:22;;;;;;;12.30;8.15;;;;;;;;;;5085573;28;20023;-58
2022/11/28 01:54:48;;;;;;;11.20;7.63;;;;;;;;;;5085902;28;20405;-58
2022/11/28 01:57:17;;;;;;;12.98;8.30;;;;;;;;;;5084524;28;20058;-58
2022/11/28 01:59:46;;;;;;;16.08;7.53;;;;;;;;;;5069563;28;20425;-58
2022/11/28 02:02:17;;;;;;;12.13;7.13;;;;;;;;;;5083793;28;20025;-58
2022/11/28 02:04:42;;;;;;;13.40;7.45;;;;;;;;;;5103203;27;20050;-58
2022/11/28 02:07:07;;;;;;;13.30;7.00;;;;;;;;;;5081844;28;20478;-58
2022/11/28 02:09:33;;;;;;;16.20;8.70;;;;;;;;;;5087733;28;20489;-58
2022/11/28 02:12:05;;;;;;;13.50;8.05;;;;;;;;;;5082335;28;20024;-58
2022/11/28 02:14:49;;;;;;;13.05;8.43;;;;;;;;;;5077642;28;20032;-58
2022/11/28 02:17:14;;;;;;;14.50;8.13;;;;;;;;;;5088335;28;20131;-58
2022/11/28 02:19:45;;;;;;;14.77;8.40;;;;;;;;;;5081219;28;20114;-59
2022/11/28 02:22:19;;;;;;;15.35;8.73;;;;;;;;;;5082056;28;20107;-59
2022/11/28 02:24:53;;;;;;;11.27;7.32;;;;;;;;;;5107779;27;20068;-59
2022/11/28 02:27:18;;;;;;;13.77;8.10;;;;;;;;;;5074558;28;20419;-58
2022/11/28 02:29:50;;;;;;;14.95;8.88;;;;;;;;;;5091946;28;20136;-58
2022/11/28 02:32:30;;;;;;;13.05;7.75;;;;;;;;;;5080478;28;20658;-58
2022/11/28 02:34:55;;;;;;;;;;;;;;;;;;5071529;28;20115;-56
2022/11/28 02:37:21;;;;;;;15.27;9.25;;;;;;;;;;5079761;28;19922;-58
2022/11/28 02:39:49;;;;;;;16.08;9.50;;;;;;;;;;5081099;28;20294;-58
2022/11/28 02:42:16;;;;;;;14.82;9.35;;;;;;;;;;5076598;28;20036;-59
2022/11/28 02:44:43;;;;;;;16.17;10.32;;;;;;;;;;5112443;27;20213;-58
2022/11/28 02:47:09;;;;;;;16.40;9.75;;;;;;;;;;5075728;28;20028;-59
2022/11/28 02:49:36;;;;;;;14.43;9.07;;;;;;;;;;5090832;28;20028;-58
2022/11/28 02:52:24;;;;;;;15.32;9.52;;;;;;;;;;5085469;28;20055;-58
2022/11/28 02:54:49;;;;;;;17.30;10.25;;;;;;;;;;5036002;28;20112;-58
2022/11/28 02:57:15;;;;;;;14.43;9.45;;;;;;;;;;5075556;28;20070;-58
2022/11/28 02:59:40;;;;;;;17.27;10.20;;;;;;;;;;5077952;28;20064;-58
2022/11/28 03:02:09;;;;;;;13.52;9.68;;;;;;;;;;5092736;28;20118;-58
2022/11/28 03:04:53;;;;;;;18.63;10.45;;;;;;;;;;5074884;28;20558;-58
2022/11/28 03:07:31;;;;;;;17.13;9.63;;;;;;;;;;5077094;28;20366;-58
2022/11/28 03:10:14;;;;;;;15.88;8.88;;;;;;;;;;5070983;28;20040;-58
2022/11/28 03:12:52;;;;;;;11.38;8.32;;;;;;;;;;5080871;28;20460;-58
2022/11/28 03:15:19;;;;;;;13.43;8.88;;;;;;;;;;5071606;28;20031;-58
2022/11/28 03:17:57;;;;;;;13.50;9.43;;;;;;;;;;5101407;27;20348;-58
2022/11/28 03:20:27;;;;;;;17.58;9.07;;;;;;;;;;5078901;28;20752;-58
2022/11/28 03:22:58;;;;;;;14.93;9.27;;;;;;;;;;5055007;28;20012;-58
2022/11/28 03:25:26;;;;;;;16.00;9.23;;;;;;;;;;5080233;28;20044;-58
2022/11/28 03:28:01;;;;;;;17.30;9.45;;;;;;;;;;5078368;28;20770;-58
2022/11/28 03:30:33;;;;;;;18.20;10.55;;;;;;;;;;5074186;28;20425;-58
2022/11/28 03:32:59;;;;;;;16.98;9.38;;;;;;;;;;5080680;28;20035;-58
2022/11/28 03:35:25;;;;;;;15.85;10.13;;;;;;;;;;5101186;27;20154;-58
2022/11/28 03:37:52;;;;;;;17.08;9.32;;;;;;;;;;5068897;28;20025;-58
2022/11/28 03:40:19;;;;;;;16.45;10.32;;;;;;;;;;5072166;28;20115;-58
2022/11/28 03:42:47;;;;;;;21.45;10.60;;;;;;;;;;5072337;28;20115;-58
2022/11/28 03:45:14;;;;;;;17.63;9.57;;;;;;;;;;5073255;28;20028;-58
2022/11/28 03:47:46;;;;;;;18.70;10.13;;;;;;;;;;5114101;27;20027;-58
2022/11/28 03:50:13;;;;;;;20.63;9.98;;;;;;;;;;5075403;28;20038;-58
2022/11/28 03:52:39;;;;;;;16.73;10.43;;;;;;;;;;5088503;28;20020;-58
2022/11/28 03:55:13;;;;;;;16.65;10.25;;;;;;;;;;5080235;28;20035;-58
2022/11/28 03:57:42;;;;;;;17.75;9.07;;;;;;;;;;5090117;28;20020;-58
2022/11/28 04:00:08;;;;;;;15.82;9.93;;;;;;;;;;5071072;28;20119;-59
2022/11/28 04:02:38;;;;;;;15.05;9.38;;;;;;;;;;5078533;28;20342;-58
2022/11/28 04:05:11;;;;;;;15.52;9.60;;;;;;;;;;5078618;28;20032;-58
2022/11/28 04:07:57;;;;;;;15.57;9.65;;;;;;;;;;5112871;27;20088;-58
2022/11/28 04:10:30;;;;;;;15.93;9.60;;;;;;;;;;5079100;28;20028;-58
2022/11/28 04:12:58;;;;;;;16.85;9.95;;;;;;;;;;5078946;28;20136;-58
2022/11/28 04:15:32;;;;;;;15.57;9.65;;;;;;;;;;5076655;28;20366;-58
2022/11/28 04:18:16;;;;;;;17.60;10.45;;;;;;;;;;5086929;28;20023;-58
2022/11/28 04:20:42;;;;;;;16.95;9.32;;;;;;;;;;5080731;28;20031;-59
2022/11/28 04:23:09;;;;;;;13.70;8.98;;;;;;;;;;5079772;28;20531;-58
2022/11/28 04:25:35;;;;;;;13.65;9.95;;;;;;;;;;5082487;28;20393;-59
2022/11/28 04:28:07;;;;;;;15.10;9.98;;;;;;;;;;5076933;28;20031;-58
2022/11/28 04:30:33;;;;;;;16.25;10.15;;;;;;;;;;5112283;27;20418;-58
2022/11/28 04:32:59;;;;;;;17.73;10.40;;;;;;;;;;5089721;28;20023;-58
2022/11/28 04:35:26;;;;;;;17.10;10.48;;;;;;;;;;5087424;28;20115;-58
2022/11/28 04:37:51;;;;;;;18.27;10.13;;;;;;;;;;5076474;28;20016;-58
2022/11/28 04:40:16;;;;;;;15.38;10.43;;;;;;;;;;5072881;28;20039;-58
2022/11/28 04:42:47;;;;;;;17.33;9.90;;;;;;;;;;5110195;27;20015;-58
2022/11/28 04:45:12;;;;;;;15.40;10.35;;;;;;;;;;5074474;28;20411;-58
2022/11/28 04:47:37;;;;;;;14.43;9.88;;;;;;;;;;5080386;28;20055;-58
2022/11/28 04:50:02;;;;;;;15.65;10.10;;;;;;;;;;5070032;28;20390;-58
2022/11/28 04:52:37;;;;;;;17.80;9.95;;;;;;;;;;5111160;27;20047;-58
2022/11/28 04:55:21;;;;;;;17.45;10.13;;;;;;;;;;5071262;28;20473;-58
2022/11/28 04:57:48;;;;;;;16.70;10.88;;;;;;;;;;5070339;28;20033;-58
2022/11/28 05:00:14;;;;;;;17.80;10.55;;;;;;;;;;5069436;28;20016;-58
2022/11/28 05:02:39;;;;;;;14.68;9.70;;;;;;;;;;5076150;28;20173;-58
2022/11/28 05:05:12;;;;;;;17.52;9.68;;;;;;;;;;5068729;28;20128;-58
2022/11/28 05:07:37;;;;;;;17.33;10.40;;;;;;;;;;5110759;27;20162;-58
2022/11/28 05:10:03;;;;;;;20.45;9.70;;;;;;;;;;5079976;28;20114;-58
2022/11/28 05:12:28;;;;;;;14.90;9.55;;;;;;;;;;5085098;28;20042;-58
2022/11/28 05:14:54;;;;;;;16.63;9.48;;;;;;;;;;5078204;28;20196;-58
2022/11/28 05:17:19;;;;;;;15.43;9.75;;;;;;;;;;5072981;28;20482;-58
2022/11/28 05:19:44;;;;;;;15.45;8.82;;;;;;;;;;5081087;28;20229;-58
2022/11/28 05:22:09;;;;;;;15.73;9.77;;;;;;;;;;5114741;27;20433;-58
2022/11/28 05:24:35;;;;;;;16.60;10.00;;;;;;;;;;5089023;28;20493;-58
2022/11/28 05:27:00;;;;;;;14.95;9.25;;;;;;;;;;5083093;28;20400;-58
2022/11/28 05:29:25;;;;;;;15.85;9.50;;;;;;;;;;5077072;28;22298;-58
2022/11/28 05:31:50;;;;;;;14.27;9.50;;;;;;;;;;5091549;28;20036;-58
2022/11/28 05:34:15;;;;;;;13.82;8.82;;;;;;;;;;5082891;28;20045;-58
2022/11/28 05:36:41;;;;;;;12.43;8.95;;;;;;;;;;5083010;28;20514;-58
2022/11/28 05:39:06;;;;;;;16.50;9.73;;;;;;;;;;5078305;28;20607;-58
2022/11/28 05:41:31;;;;;;;15.98;8.75;;;;;;;;;;5080357;28;20029;-58
2022/11/28 05:43:57;;;;;;;13.13;8.50;;;;;;;;;;5080575;28;20020;-58
2022/11/28 05:46:22;;;;;;;16.17;8.93;;;;;;;;;;5075290;28;20028;-58
2022/11/28 05:48:48;;;;;;;13.82;9.02;;;;;;;;;;5079246;28;20028;-58
2022/11/28 05:51:13;;;;;;;17.63;10.60;;;;;;;;;;5081631;28;20037;-58
2022/11/28 05:53:38;;;;;;;21.23;11.90;;;;;;;;;;5082198;28;20027;-58
2022/11/28 05:56:11;;;;;;;20.58;12.48;;;;;;;;;;5071565;28;20113;-58
2022/11/28 05:58:36;;;;;;;24.48;13.98;;;;;;;;;;5070702;28;20125;-58
2022/11/28 06:01:08;;;;;;;15.23;10.05;;;;;;;;;;5086907;28;20442;-58
2022/11/28 06:03:33;;;;;;;14.20;9.27;;;;;;;;;;5078046;28;20032;-58
2022/11/28 06:05:58;;;;;;;20.23;12.07;;;;;;;;;;5076582;28;20395;-58
2022/11/28 06:08:24;;;;;;;17.55;10.82;;;;;;;;;;5077453;28;20592;-58
2022/11/28 06:10:55;;;;;;;14.57;9.13;;;;;;;;;;5082471;28;20471;-58
2022/11/28 06:13:20;;;;;;;14.90;8.50;;;;;;;;;;5087831;28;20123;-58
2022/11/28 06:15:45;;;;;;;16.20;8.68;;;;;;;;;;5082975;28;20589;-58
2022/11/28 06:18:10;;;;;;;15.20;8.38;;;;;;;;;;5083005;28;21321;-58
2022/11/28 06:20:35;;;;;;;14.27;8.60;;;;;;;;;;5086492;28;20016;-58
2022/11/28 06:23:01;;;;;;;13.65;8.07;;;;;;;;;;5068074;28;20016;-58
2022/11/28 06:25:26;;;;;;;12.68;7.35;;;;;;;;;;5083988;28;20039;-58
2022/11/28 06:27:51;;;;;;;11.73;7.50;;;;;;;;;;5079938;28;20024;-58
2022/11/28 06:30:16;;;;;;;13.55;8.75;;;;;;;;;;5086646;28;20035;-58
2022/11/28 06:32:42;;;;;;;12.35;7.80;;;;;;;;;;5073996;28;20016;-58
2022/11/28 06:35:07;;;;;;;17.42;8.02;;;;;;;;;;5114812;27;20024;-58
2022/11/28 06:37:32;;;;;;;14.13;7.47;;;;;;;;;;5075000;28;20026;-58
2022/11/28 06:39:58;;;;;;;12.43;7.53;;;;;;;;;;5079352;28;20024;-59
2022/11/28 06:42:23;;;;;;;11.60;7.15;;;;;;;;;;5077048;28;20513;-58
2022/11/28 06:44:48;;;;;;;12.85;8.02;;;;;;;;;;5082347;28;20052;-58
2022/11/28 06:47:13;;;;;;;12.95;7.15;;;;;;;;;;5080207;28;20031;-58
2022/11/28 06:49:38;;;;;;;13.85;7.18;;;;;;;;;;5087697;28;20035;-58
2022/11/28 06:52:04;;;;;;;13.52;7.53;;;;;;;;;;5076586;28;20036;-58
2022/11/28 06:54:29;;;;;;;12.90;6.88;;;;;;;;;;5074981;28;20137;-58
2022/11/28 06:56:54;;;;;;;13.50;6.90;;;;;;;;;;5081630;28;20032;-58
2022/11/28 06:59:19;;;;;;;11.70;6.72;;;;;;;;;;5073320;28;20416;-58
2022/11/28 07:01:45;;;;;;;11.77;6.15;;;;;;;;;;5080056;28;20451;-58
2022/11/28 07:04:10;;;;;;;10.02;6.25;;;;;;;;;;5075949;28;20024;-58
2022/11/28 07:06:36;;;;;;;13.45;7.60;;;;;;;;;;5081595;28;20032;-58
2022/11/28 07:09:01;;;;;;;12.23;7.15;;;;;;;;;;5076876;28;20040;-57
2022/11/28 07:11:27;;;;;;;12.70;6.53;;;;;;;;;;5090185;28;20351;-57
2022/11/28 07:13:52;;;;;;;11.57;6.97;;;;;;;;;;5081293;28;20091;-58
2022/11/28 07:16:18;;;;;;;12.07;7.35;;;;;;;;;;5082140;28;20035;-58
2022/11/28 07:18:44;;;;;;;13.00;7.10;;;;;;;;;;5084397;28;20509;-58
2022/11/28 07:21:09;;;;;;;10.80;7.45;;;;;;;;;;5094041;27;20059;-58
2022/11/28 07:23:34;;;;;;;11.43;6.85;;;;;;;;;;5069530;28;20033;-57
2022/11/28 07:26:00;;;;;;;11.60;7.47;;;;;;;;;;5074532;28;20026;-57
2022/11/28 07:28:26;;;;;;;11.68;7.10;;;;;;;;;;5075275;28;20024;-57
2022/11/28 07:31:04;;;;;;;10.77;7.35;;;;;;;;;;5075520;28;20039;-59
2022/11/28 07:33:29;;;;;;;12.95;6.88;;;;;;;;;;5083843;28;20048;-58
2022/11/28 07:35:58;;;;;;;10.93;7.43;;;;;;;;;;5112936;27;20059;-59
2022/11/28 07:38:23;;;;;;;10.80;7.20;;;;;;;;;;5071953;28;20115;-59
2022/11/28 07:40:49;;;;;;;14.52;7.65;;;;;;;;;;5080050;28;20098;-58
2022/11/28 07:43:14;;;;;;;13.50;7.75;;;;;;;;;;5079722;28;20035;-59
2022/11/28 07:45:39;;;;;;;12.07;6.95;;;;;;;;;;5083122;28;20015;-58
2022/11/28 07:48:05;;;;;;;12.23;7.70;;;;;;;;;;5089214;28;20115;-58
2022/11/28 07:50:30;;;;;;;10.98;6.85;;;;;;;;;;5084199;28;20029;-58
2022/11/28 07:52:56;;;;;;;13.55;7.93;;;;;;;;;;5081237;28;20016;-58
2022/11/28 07:55:21;;;;;;;17.45;9.77;;;;;;;;;;5091617;28;20024;-58
2022/11/28 07:57:47;;;;;;;14.35;8.50;;;;;;;;;;5082267;28;20022;-58
2022/11/28 08:00:12;;;;;;;13.50;8.35;;;;;;;;;;5078574;28;20026;-58
2022/11/28 08:02:38;;;;;;;16.20;8.43;;;;;;;;;;5079426;28;20058;-58
2022/11/28 08:05:03;;;;;;;16.17;9.15;;;;;;;;;;5077544;28;20024;-58
2022/11/28 08:07:28;;;;;;;17.83;9.38;;;;;;;;;;5082073;28;20132;-58
2022/11/28 08:09:56;;;;;;;14.30;8.75;;;;;;;;;;5078302;28;20073;-58
2022/11/28 08:12:21;;;;;;;13.93;8.32;;;;;;;;;;5117799;27;20107;-58
2022/11/28 08:14:48;;;;;;;16.58;9.23;;;;;;;;;;5077393;28;20040;-58
2022/11/28 08:17:13;;;;;;;15.23;9.15;;;;;;;;;;5073457;28;20034;-58
2022/11/28 08:19:38;;;;;;;17.67;9.27;;;;;;;;;;5082986;28;20021;-58
2022/11/28 08:22:04;;;;;;;17.92;8.98;;;;;;;;;;5075771;28;20024;-58
2022/11/28 08:24:29;;;;;;;17.77;9.25;;;;;;;;;;5080307;28;20036;-58
2022/11/28 08:26:54;;;;;;;15.95;9.45;;;;;;;;;;5094554;28;20015;-58
2022/11/28 08:29:19;;;;;;;14.13;8.23;;;;;;;;;;5076471;28;20075;-59
2022/11/28 08:31:45;;;;;;;15.35;8.40;;;;;;;;;;5070927;28;20397;-59
2022/11/28 08:34:11;;;;;;;12.85;7.72;;;;;;;;;;5111052;27;20545;-59
2022/11/28 08:36:36;;;;;;;15.95;8.70;;;;;;;;;;5078321;28;20038;-58
2022/11/28 08:39:02;;;;;;;16.45;8.38;;;;;;;;;;5073429;28;20024;-59
2022/11/28 08:41:27;;;;;;;13.65;9.07;;;;;;;;;;5082448;28;20032;-58
2022/11/28 08:43:53;;;;;;;14.77;8.25;;;;;;;;;;5086870;28;20016;-57
2022/11/28 08:46:19;;;;;;;24.45;9.02;;;;;;;;;;5078719;28;20063;-58
2022/11/28 08:48:44;;;;;;;16.10;9.05;;;;;;;;;;5082022;28;20314;-58
2022/11/28 08:51:14;;;;;;;15.48;9.07;;;;;;;;;;5085393;28;20032;-58
2022/11/28 08:53:40;;;;;;;13.27;7.93;;;;;;;;;;5083044;28;20023;-57
2022/11/28 08:56:05;;;;;;;14.68;8.00;;;;;;;;;;5073707;28;20158;-58
2022/11/28 08:58:30;;;;;;;15.63;8.30;;;;;;;;;;5072562;28;20056;-58
2022/11/28 09:00:55;;;;;;;10.25;7.05;;;;;;;;;;5072756;28;20019;-58
2022/11/28 09:03:21;;;;;;;11.57;6.95;;;;;;;;;;5077529;28;20048;-58
2022/11/28 09:05:46;;;;;;;10.63;6.93;;;;;;;;;;5083903;28;20020;-58
2022/11/28 09:08:15;;;;;;;12.43;7.57;;;;;;;;;;5067387;28;20485;-58
2022/11/28 09:10:40;;;;;;;11.98;7.57;;;;;;;;;;5082085;28;20493;-58
2022/11/28 09:13:06;;;;;;;10.50;6.93;;;;;;;;;;5073438;28;20020;-58
2022/11/28 09:15:31;;;;;;;12.15;7.55;;;;;;;;;;5082738;28;20267;-58
2022/11/28 09:17:57;;;;;;;12.77;6.85;;;;;;;;;;5075860;28;20107;-58
2022/11/28 09:20:22;;;;;;;12.68;7.55;;;;;;;;;;5081417;28;20160;-58
2022/11/28 09:22:47;;;;;;;11.60;6.50;;;;;;;;;;5083876;28;20020;-58
2022/11/28 09:25:13;;;;;;;12.55;6.35;;;;;;;;;;5091690;28;20035;-58
2022/11/28 09:27:38;;;;;;;13.10;6.63;;;;;;;;;;5070097;28;20024;-58
2022/11/28 09:30:04;;;;;;;11.13;6.63;;;;;;;;;;5079215;28;20444;-58
2022/11/28 09:32:29;;;;;;;11.32;6.75;;;;;;;;;;5074005;28;20404;-58
2022/11/28 09:34:55;;;;;;;11.80;6.95;;;;;;;;;;5088512;28;20824;-58
2022/11/28 09:37:20;;;;;;;12.02;6.97;;;;;;;;;;5082482;28;20506;-58
2022/11/28 09:39:45;;;;;;;12.10;7.35;;;;;;;;;;5086563;28;20031;-58
2022/11/28 09:42:13;;;;;;;12.73;7.18;;;;;;;;;;5081190;28;20020;-58
2022/11/28 09:44:41;;;;;;;12.55;6.85;;;;;;;;;;5087497;28;20481;-58
2022/11/28 09:47:16;;;;;;;12.50;6.65;;;;;;;;;;5086355;28;20374;-58
2022/11/28 09:49:49;;;;;;;12.48;5.95;;;;;;;;;;5082785;28;20031;-59
2022/11/28 09:52:23;;;;;;;10.85;6.25;;;;;;;;;;5113150;27;20039;-57
2022/11/28 09:54:55;;;;;;;10.40;6.75;;;;;;;;;;5080700;28;20058;-57
2022/11/28 09:57:25;;;;;;;9.27;6.72;;;;;;;;;;5084806;28;20031;-59
2022/11/28 09:59:50;;;;;;;12.98;6.75;;;;;;;;;;5081795;28;20073;-59
2022/11/28 10:02:21;;;;;;;10.98;6.80;;;;;;;;;;5077292;28;20612;-59
2022/11/28 10:04:47;;;;;;;10.27;7.00;;;;;;;;;;5071859;28;20595;-59
2022/11/28 10:07:15;;;;;;;8.93;6.28;;;;;;;;;;5088216;28;20044;-59
2022/11/28 10:09:50;;;;;;;15.25;6.88;;;;;;;;;;5083401;28;20055;-58
2022/11/28 10:12:18;;;;;;;11.98;6.60;;;;;;;;;;5086572;28;20034;-58
2022/11/28 10:15:19;;;;;;;11.90;6.75;;;;;;;;;;5085640;28;20430;-58
2022/11/28 10:17:44;;;;;;;;;;;;;;;;;;4998623;28;20029;-58
2022/11/28 10:20:11;;;;;;;10.10;6.53;;;;;;;;;;5068590;28;20096;-57
2022/11/28 10:22:43;;;;;;;14.82;7.00;;;;;;;;;;5078984;28;20270;-59
2022/11/28 10:25:16;;;;;;;14.95;7.30;;;;;;;;;;5115783;27;20470;-58
2022/11/28 10:27:41;;;;;;;10.02;6.90;;;;;;;;;;5083300;28;20035;-58
2022/11/28 10:30:09;;;;;;;11.18;7.10;;;;;;;;;;5072904;28;20036;-58
2022/11/28 10:32:39;;;;;;;14.20;7.40;;;;;;;;;;5061549;28;20107;-56
2022/11/28 10:35:05;;;;;;;10.47;7.17;;;;;;;;;;5085648;28;20430;-59
2022/11/28 10:37:31;;;;;;;13.88;7.65;;;;;;;;;;5086654;28;20386;-59
2022/11/28 10:39:57;;;;;;;13.10;7.50;;;;;;;;;;5087203;28;20466;-59
2022/11/28 10:42:27;;;;;;;17.63;7.75;;;;;;;;;;5069314;28;20757;-58
2022/11/28 10:44:53;;;;;;;10.52;7.50;;;;;;;;;;5075431;28;20066;-58
2022/11/28 10:47:21;;;;;;;9.52;6.50;;;;;;;;;;5083823;28;20047;-59
2022/11/28 10:49:49;;;;;;;13.85;8.02;;;;;;;;;;5093153;28;20037;-61
2022/11/28 10:52:21;;;;;;;13.57;7.25;;;;;;;;;;5073996;28;20020;-59
2022/11/28 10:54:58;;;;;;;11.43;7.47;;;;;;;;;;5088112;28;20019;-59
2022/11/28 10:57:26;;;;;;;12.50;7.57;;;;;;;;;;5083551;28;20044;-59
2022/11/28 10:59:55;;;;;;;16.38;8.02;;;;;;;;;;5074632;28;20173;-59
2022/11/28 11:02:21;;;;;;;13.15;7.57;;;;;;;;;;5080073;28;20048;-58
2022/11/28 11:04:46;;;;;;;13.38;7.38;;;;;;;;;;5078577;28;20397;-58
2022/11/28 11:07:18;;;;;;;15.50;7.43;;;;;;;;;;5085789;28;20044;-59
2022/11/28 11:09:44;;;;;;;13.23;7.53;;;;;;;;;;5109998;27;20747;-57
2022/11/28 11:12:13;;;;;;;14.45;7.60;;;;;;;;;;5078136;28;20036;-57
2022/11/28 11:14:41;;;;;;;16.58;7.85;;;;;;;;;;5122772;27;20516;-57
2022/11/28 11:17:08;;;;;;;12.15;7.25;;;;;;;;;;5074747;28;20282;-57
2022/11/28 11:19:34;;;;;;;9.18;6.70;;;;;;;;;;5077538;28;20025;-57
2022/11/28 11:22:20;;;;;;;13.50;7.35;;;;;;;;;;5090552;28;20027;-57
2022/11/28 11:25:02;;;;;;;16.25;8.10;;;;;;;;;;5073550;28;20035;-57
2022/11/28 11:27:28;;;;;;;12.27;7.82;;;;;;;;;;5085738;28;20028;-57
2022/11/28 11:29:53;;;;;;;13.13;7.65;;;;;;;;;;5076644;28;20051;-57
2022/11/28 11:32:20;;;;;;;13.30;7.95;;;;;;;;;;5083119;28;20031;-57
2022/11/28 11:34:45;;;;;;;16.92;8.20;;;;;;;;;;5083313;28;20500;-57
2022/11/28 11:37:29;;;;;;;17.98;8.10;;;;;;;;;;5085448;28;20024;-58
2022/11/28 11:39:54;;;;;;;11.35;7.10;;;;;;;;;;5080969;28;20424;-57
2022/11/28 11:42:21;;;;;;;14.38;7.95;;;;;;;;;;5074806;28;20032;-57
2022/11/28 11:44:46;;;;;;;16.35;8.05;;;;;;;;;;5082780;28;20039;-57
2022/11/28 11:47:11;;;;;;;14.23;8.00;;;;;;;;;;5092042;28;20021;-57
2022/11/28 11:49:43;;;;;;;16.20;8.25;;;;;;;;;;5082835;28;20029;-57
2022/11/28 11:52:11;;;;;;;15.43;7.85;;;;;;;;;;5070919;28;20048;-57
2022/11/28 11:54:37;;;;;;;18.27;8.30;;;;;;;;;;5087492;28;20039;-58
2022/11/28 11:57:02;;;;;;;15.32;8.07;;;;;;;;;;5088881;28;20020;-57
2022/11/28 11:59:27;;;;;;;15.50;8.50;;;;;;;;;;5075561;28;20020;-57
2022/11/28 12:01:58;;;;;;;12.93;8.48;;;;;;;;;;5076026;28;20039;-57
2022/11/28 12:04:33;;;;;;;12.70;7.90;;;;;;;;;;5112570;27;20028;-59
2022/11/28 12:06:59;;;;;;;15.05;6.82;;;;;;;;;;5086572;28;20047;-59
2022/11/28 12:09:29;;;;;;;14.10;8.18;;;;;;;;;;5074072;28;20124;-59
2022/11/28 12:12:04;;;;;;;18.17;7.97;;;;;;;;;;5070217;28;20077;-57
2022/11/28 12:14:33;;;;;;;14.50;7.72;;;;;;;;;;5071800;28;20028;-59
2022/11/28 12:17:17;;;;;;;12.90;7.60;;;;;;;;;;5074076;28;20067;-58
2022/11/28 12:19:52;;;;;;;14.63;7.57;;;;;;;;;;5075153;28;20027;-57
2022/11/28 12:22:17;;;;;;;14.07;8.02;;;;;;;;;;5076606;28;20066;-57
2022/11/28 12:24:46;;;;;;;14.23;8.02;;;;;;;;;;5076575;28;20478;-57
2022/11/28 12:27:30;;;;;;;14.68;8.02;;;;;;;;;;5075657;28;20584;-57
2022/11/28 12:30:17;;;;;;;10.82;6.88;;;;;;;;;;5082900;28;20042;-57
2022/11/28 12:32:45;;;;;;;10.25;6.80;;;;;;;;;;5107209;27;20027;-57
2022/11/28 12:35:19;;;;;;;12.90;7.55;;;;;;;;;;5077919;28;20070;-57
2022/11/28 12:37:47;;;;;;;14.57;7.00;;;;;;;;;;5075578;28;20023;-57
2022/11/28 12:40:15;;;;;;;13.73;6.88;;;;;;;;;;5081298;28;20102;-57
2022/11/28 12:42:52;;;;;;;14.23;7.70;;;;;;;;;;5076015;28;20016;-57
2022/11/28 12:45:23;;;;;;;14.57;7.43;;;;;;;;;;5074240;28;20436;-57
2022/11/28 12:47:51;;;;;;;12.73;7.38;;;;;;;;;;5083736;28;20394;-57
2022/11/28 12:50:43;;;;;;;14.55;8.00;;;;;;;;;;5076573;28;20021;-57
2022/11/28 12:53:47;;;;;;;12.15;6.38;;;;;;;;;;5065999;28;20122;-57
2022/11/28 12:56:15;;;;;;;13.68;8.07;;;;;;;;;;5037088;28;20498;-57
2022/11/28 12:58:40;;;;;;;13.63;6.38;;;;;;;;;;5035798;28;20060;-57
2022/11/28 13:01:24;;;;;;;10.07;6.35;;;;;;;;;;5055215;28;20075;-57
2022/11/28 13:04:10;;;;;;;11.65;6.97;;;;;;;;;;5072111;28;20081;-59
2022/11/28 13:06:41;;;;;;;9.32;6.70;;;;;;;;;;5075030;28;20029;-57
2022/11/28 13:09:09;;;;;;;12.38;7.22;;;;;;;;;;5043864;28;20419;-57
2022/11/28 13:11:35;;;;;;;12.07;7.45;;;;;;;;;;5044836;28;20029;-58
2022/11/28 13:14:03;;;;;;;10.70;6.88;;;;;;;;;;5041611;28;20020;-59
2022/11/28 13:16:40;;;;;;;14.52;8.05;;;;;;;;;;5045373;28;20025;-58
2022/11/28 13:19:24;;;;;;;8.43;6.32;;;;;;;;;;5047227;28;20070;-58
2022/11/28 13:22:13;;;;;;;14.02;7.82;;;;;;;;;;5041696;28;20055;-59
2022/11/28 13:24:59;;;;;;;11.45;7.30;;;;;;;;;;5036859;28;20398;-59
2022/11/28 13:27:43;;;;;;;10.95;7.25;;;;;;;;;;5038021;28;20155;-58
2022/11/28 13:30:14;;;;;;;11.88;6.88;;;;;;;;;;5042619;28;20029;-59
2022/11/28 13:32:52;;;;;;;9.50;6.03;;;;;;;;;;5041756;28;20061;-58
2022/11/28 13:35:17;;;;;;;9.05;6.55;;;;;;;;;;5037606;28;20033;-58
2022/11/28 13:38:12;;;;;;;9.57;6.07;;;;;;;;;;5041103;28;20024;-60
2022/11/28 13:40:40;;;;;;;10.35;6.80;;;;;;;;;;5039534;28;20037;-58
2022/11/28 13:43:05;;;;;;;9.95;5.80;;;;;;;;;;5031440;28;20033;-58
2022/11/28 13:45:33;;;;;;;11.57;5.55;;;;;;;;;;5036346;28;20027;-58
2022/11/28 13:47:59;;;;;;;9.57;5.97;;;;;;;;;;5045458;28;20511;-58
2022/11/28 13:50:34;;;;;;;8.85;5.63;;;;;;;;;;5043100;28;20385;-59
2022/11/28 13:53:00;;;;;;;9.45;5.25;;;;;;;;;;5045857;28;20450;-59
2022/11/28 13:55:35;;;;;;;9.45;6.18;;;;;;;;;;5040882;28;20083;-58
2022/11/28 13:58:15;;;;;;;9.77;5.75;;;;;;;;;;5040807;28;20169;-58
2022/11/28 14:00:40;;;;;;;11.38;6.05;;;;;;;;;;5042330;28;20024;-58
2022/11/28 14:03:13;;;;;;;11.55;6.18;;;;;;;;;;5038042;28;20028;-58
2022/11/28 14:05:38;;;;;;;9.02;6.40;;;;;;;;;;5072118;28;20036;-61
2022/11/28 14:08:04;;;;;;;8.18;5.53;;;;;;;;;;5071693;28;20351;-57
2022/11/28 14:10:40;;;;;;;13.13;7.50;;;;;;;;;;5081177;28;20039;-60
2022/11/28 14:13:08;;;;;;;9.38;6.55;;;;;;;;;;5079751;28;20059;-58
2022/11/28 14:15:39;;;;;;;11.38;7.05;;;;;;;;;;5081084;28;20024;-60
2022/11/28 14:18:20;;;;;;;9.95;6.13;;;;;;;;;;5081431;28;20129;-58
2022/11/28 14:20:45;;;;;;;;;;;;;;;;;;5080486;28;20043;-58
2022/11/28 14:23:20;;;;;;;10.25;6.10;;;;;;;;;;5092757;28;19965;-59
2022/11/28 14:25:46;;;;;;;9.15;5.88;;;;;;;;;;5074487;28;20254;-58
2022/11/28 14:28:14;;;;;;;12.23;6.25;;;;;;;;;;5070643;28;20070;-59
2022/11/28 14:30:40;;;;;;;8.98;6.22;;;;;;;;;;5085949;28;20032;-58
2022/11/28 14:33:14;;;;;;;9.52;5.78;;;;;;;;;;5116969;27;20020;-57
2022/11/28 14:35:51;;;;;;;12.48;8.75;;;;;;;;;;5084781;28;20100;-58
2022/11/28 14:38:29;;;;;;;8.98;6.25;;;;;;;;;;5084073;28;20032;-58